Time;durP1;ratioP1;P1;durP2;ratioP2;P2;SDS_P1;SDS_P2;PMS_P1;PMS_P2;Temp;Humidity;BMP_temperature;BMP_pressure;BME280_temperature;BME280_humidity;BME280_pressure;Samples;Min_cycle;Max_cycle;Signal;HPM_P1;HPM_P2
2022/12/20 00:01:20;;;;;;;19.58;12.25;;;;;;;-0.96;100.00;94797.41;5068080;28;20086;-70
2022/12/20 00:03:49;;;;;;;22.38;12.00;;;;;;;-0.96;100.00;94783.06;5068169;28;20048;-69
2022/12/20 00:06:15;;;;;;;20.48;13.07;;;;;;;-0.98;100.00;94791.63;5068556;28;20110;-69
2022/12/20 00:08:44;;;;;;;21.98;13.48;;;;;;;-1.01;100.00;94789.31;5068315;28;20118;-69
2022/12/20 00:11:11;;;;;;;22.20;13.13;;;;;;;-1.05;100.00;94795.47;5068474;28;20603;-69
2022/12/20 00:13:39;;;;;;;18.40;11.85;;;;;;;-1.39;100.00;94753.06;5067644;28;20527;-69
2022/12/20 00:16:08;;;;;;;21.08;12.82;;;;;;;-1.13;100.00;94794.25;5068281;28;20048;-69
2022/12/20 00:18:36;;;;;;;17.90;12.00;;;;;;;-1.28;100.00;94762.44;5068655;28;20530;-69
2022/12/20 00:21:04;;;;;;;18.98;11.68;;;;;;;-1.16;100.00;94794.44;5068164;28;20550;-69
2022/12/20 00:23:31;;;;;;;18.75;11.88;;;;;;;-1.17;100.00;94797.88;5068068;28;20398;-69
2022/12/20 00:26:04;;;;;;;20.73;13.18;;;;;;;-1.21;100.00;94804.00;5068212;28;20083;-69
2022/12/20 00:28:31;;;;;;;20.40;12.52;;;;;;;-1.26;100.00;94803.47;5067976;28;20048;-69
2022/12/20 00:30:58;;;;;;;18.65;11.15;;;;;;;-1.33;100.00;94797.22;5067781;28;20489;-69
2022/12/20 00:33:25;;;;;;;20.23;12.32;;;;;;;-1.31;100.00;94800.47;5068273;28;20094;-69
2022/12/20 00:35:51;;;;;;;21.13;11.52;;;;;;;-1.36;100.00;94796.53;5065186;28;20508;-69
2022/12/20 00:38:18;;;;;;;18.98;12.25;;;;;;;-1.36;100.00;94799.03;5057810;28;20057;-69
2022/12/20 00:40:45;;;;;;;19.48;11.63;;;;;;;-1.36;100.00;94799.03;5071777;28;20048;-69
2022/12/20 00:43:13;;;;;;;20.20;13.00;;;;;;;-1.35;100.00;94802.34;5071327;28;20044;-69
2022/12/20 00:45:40;;;;;;;20.17;12.48;;;;;;;-1.33;100.00;94799.75;5071419;28;20041;-69
2022/12/20 00:48:07;;;;;;;22.75;12.32;;;;;;;-1.31;100.00;94792.91;5071700;28;20110;-69
2022/12/20 00:50:33;;;;;;;19.98;12.60;;;;;;;-1.38;100.00;94793.28;5071772;28;20053;-69
2022/12/20 00:53:00;;;;;;;20.38;12.70;;;;;;;-1.36;100.00;94794.00;5068983;28;20049;-69
2022/12/20 00:55:27;;;;;;;19.25;12.73;;;;;;;-1.29;100.00;94798.66;5066271;28;20039;-70
2022/12/20 00:57:53;;;;;;;19.38;12.65;;;;;;;-1.28;100.00;94800.25;5071289;28;20094;-70
2022/12/20 01:00:22;;;;;;;17.42;11.63;;;;;;;-1.34;100.00;94796.44;5071203;28;20052;-70
2022/12/20 01:02:48;;;;;;;20.10;13.18;;;;;;;-1.38;100.00;94788.22;5071041;28;20407;-70
2022/12/20 01:05:15;;;;;;;19.15;12.50;;;;;;;-1.37;100.00;94794.91;5071543;28;20141;-70
2022/12/20 01:07:42;;;;;;;22.13;14.40;;;;;;;-1.52;100.00;94789.09;5071426;28;20117;-70
2022/12/20 01:10:10;;;;;;;20.73;13.43;;;;;;;-1.49;100.00;94793.13;5071121;28;20541;-70
2022/12/20 01:12:37;;;;;;;22.48;14.15;;;;;;;-1.54;100.00;94793.44;5071293;28;20071;-72
2022/12/20 01:15:05;;;;;;;24.52;14.85;;;;;;;-1.54;100.00;94780.00;5070776;28;20048;-71
2022/12/20 01:17:33;;;;;;;24.30;14.15;;;;;;;-1.60;100.00;94786.25;5071339;28;20089;-71
2022/12/20 01:20:00;;;;;;;22.98;15.15;;;;;;;-1.71;100.00;94761.72;5070768;28;20046;-71
2022/12/20 01:22:27;;;;;;;25.33;15.27;;;;;;;-1.64;100.00;94772.22;5071256;28;20055;-71
2022/12/20 01:24:54;;;;;;;24.85;15.63;;;;;;;-1.61;100.00;94767.00;5067814;28;20094;-71
2022/12/20 01:27:21;;;;;;;23.17;15.07;;;;;;;-1.70;100.00;94760.84;5070770;28;20094;-71
2022/12/20 01:29:47;;;;;;;23.50;14.75;;;;;;;-1.80;100.00;94767.34;5071147;28;20049;-71
2022/12/20 01:32:14;;;;;;;22.75;15.25;;;;;;;-1.74;100.00;94761.94;5071126;28;20451;-71
2022/12/20 01:34:42;;;;;;;24.67;15.32;;;;;;;-1.84;100.00;94760.88;5070651;28;20534;-71
2022/12/20 01:37:09;;;;;;;21.90;13.52;;;;;;;-2.11;100.00;94749.06;5070498;28;20036;-71
2022/12/20 01:39:36;;;;;;;23.88;15.25;;;;;;;-2.00;100.00;94756.78;5070589;28;20504;-71
2022/12/20 01:42:03;;;;;;;19.77;13.77;;;;;;;-2.13;100.00;94753.41;5070664;28;20028;-71
2022/12/20 01:44:54;;;;;;;20.02;12.43;;;;;;;-2.25;100.00;94750.72;5070703;28;20159;-72
2022/12/20 01:47:22;;;;;;;18.38;12.85;;;;;;;-2.38;100.00;94748.13;5050809;28;20044;-72
2022/12/20 01:49:55;;;;;;;20.10;13.10;;;;;;;-2.45;100.00;94747.69;5070341;28;20443;-71
2022/12/20 01:52:28;;;;;;;21.13;13.48;;;;;;;-2.57;100.00;94744.22;5070353;28;20451;-71
2022/12/20 01:54:58;;;;;;;21.20;13.43;;;;;;;-2.64;100.00;94753.00;5070258;28;20094;-71
2022/12/20 01:57:30;;;;;;;20.23;13.65;;;;;;;-2.87;100.00;94719.16;5069985;28;20046;-71
2022/12/20 01:59:58;;;;;;;21.08;14.00;;;;;;;-2.67;100.00;94743.13;5069757;28;20527;-71
2022/12/20 02:02:25;;;;;;;23.88;15.00;;;;;;;-2.70;100.00;94741.59;5069964;28;20040;-71
2022/12/20 02:04:53;;;;;;;24.10;14.95;;;;;;;-2.71;100.00;94747.53;5069934;28;20106;-71
2022/12/20 02:07:24;;;;;;;25.27;15.50;;;;;;;-2.77;100.00;94744.56;5069987;28;20045;-71
2022/12/20 02:09:53;;;;;;;25.80;15.50;;;;;;;-2.77;100.00;94749.59;5069521;28;20492;-71
2022/12/20 02:12:22;;;;;;;22.17;13.70;;;;;;;-2.71;100.00;94745.03;5069777;28;20501;-71
2022/12/20 02:15:02;;;;;;;19.75;12.98;;;;;;;-2.88;100.00;94707.50;5069779;28;20102;-71
2022/12/20 02:17:42;;;;;;;20.17;13.52;;;;;;;-2.62;100.00;94741.16;5069851;28;20094;-71
2022/12/20 02:20:39;;;;;;;20.70;13.52;;;;;;;-2.61;100.00;94745.28;5069566;28;20044;-71
2022/12/20 02:23:28;;;;;;;22.88;13.65;;;;;;;-2.64;100.00;94734.59;5069698;28;20045;-71
2022/12/20 02:26:12;;;;;;;19.33;12.40;;;;;;;-2.67;100.00;94735.59;5069599;28;20478;-71
2022/12/20 02:29:02;;;;;;;22.75;13.52;;;;;;;-2.69;100.00;94727.31;5069756;28;20044;-71
2022/12/20 02:31:38;;;;;;;21.63;14.07;;;;;;;-2.72;100.00;94718.22;5069561;28;20431;-71
2022/12/20 02:34:05;;;;;;;;;;;;;;;-2.57;100.00;94728.28;5070070;28;20045;-71
2022/12/20 02:36:32;;;;;;;21.48;12.60;;;;;;;-2.62;100.00;94738.63;5069649;28;19928;-71
2022/12/20 02:38:59;;;;;;;19.30;12.20;;;;;;;-2.68;100.00;94736.50;5068954;28;20041;-72
2022/12/20 02:41:30;;;;;;;19.95;11.98;;;;;;;-2.73;100.00;94736.75;5069317;28;20090;-72
2022/12/20 02:46:53;;;;;;;18.13;11.93;;;;;;;-2.85;100.00;94729.94;5069117;28;20059;-72
2022/12/20 02:49:22;;;;;;;18.95;13.05;;;;;;;-2.87;100.00;94734.25;5069512;28;20439;-72
2022/12/20 02:51:53;;;;;;;17.98;11.43;;;;;;;-2.82;100.00;94729.75;5069497;28;20052;-72
2022/12/20 02:54:20;;;;;;;19.35;12.68;;;;;;;-2.73;100.00;94720.84;5069094;28;20094;-72
2022/12/20 02:56:52;;;;;;;20.90;12.98;;;;;;;-2.72;100.00;94718.22;5068213;28;20488;-72
2022/12/20 02:59:22;;;;;;;19.83;12.93;;;;;;;-2.75;100.00;94715.91;5068049;28;20086;-72
2022/12/20 03:01:53;;;;;;;18.67;12.77;;;;;;;-2.71;100.00;94716.53;5059671;28;20157;-72
2022/12/20 03:04:28;;;;;;;18.80;11.70;;;;;;;-2.81;100.00;94703.72;5051420;28;20099;-73
2022/12/20 03:07:01;;;;;;;17.80;11.87;;;;;;;-2.91;100.00;94695.91;5065320;28;20423;-73
2022/12/20 03:09:28;;;;;;;21.40;12.35;;;;;;;-3.00;100.00;94702.25;5060610;28;20049;-73
2022/12/20 03:11:55;;;;;;;19.17;11.82;;;;;;;-2.98;100.00;94702.16;5058114;28;20119;-73
2022/12/20 03:14:23;;;;;;;19.70;11.80;;;;;;;-3.08;100.00;94701.91;5059067;28;20118;-73
2022/12/20 03:16:50;;;;;;;18.42;11.73;;;;;;;-3.06;100.00;94711.88;5059822;28;20143;-73
2022/12/20 03:19:18;;;;;;;19.50;12.18;;;;;;;-3.15;100.00;94715.72;5054395;28;20098;-74
2022/12/20 03:21:48;;;;;;;18.85;12.20;;;;;;;-3.24;100.00;94715.34;5048394;28;20052;-72
2022/12/20 03:24:15;;;;;;;19.98;11.85;;;;;;;-3.29;100.00;94722.34;5048394;28;20041;-72
2022/12/20 03:26:42;;;;;;;18.48;11.27;;;;;;;-3.33;100.00;94720.09;5048526;28;20106;-72
2022/12/20 03:29:09;;;;;;;19.17;11.25;;;;;;;-3.32;100.00;94721.69;5048439;28;20094;-72
2022/12/20 03:31:36;;;;;;;18.80;11.05;;;;;;;-3.54;100.00;94723.72;5048283;28;20045;-72
2022/12/20 03:34:03;;;;;;;17.70;10.63;;;;;;;-3.57;100.00;94721.38;5048339;28;20090;-72
2022/12/20 03:36:32;;;;;;;17.63;11.13;;;;;;;-3.56;100.00;94719.69;5048504;28;20041;-73
2022/12/20 03:38:59;;;;;;;17.25;10.63;;;;;;;-3.52;100.00;94716.13;5048176;28;20045;-73
2022/12/20 03:41:26;;;;;;;17.48;11.00;;;;;;;-3.56;100.00;94720.47;5048251;28;20543;-73
2022/12/20 03:43:53;;;;;;;17.67;11.27;;;;;;;-3.58;100.00;94722.28;5048492;28;20076;-73
2022/12/20 03:46:20;;;;;;;16.25;10.73;;;;;;;-3.71;100.00;94701.25;5048007;28;20041;-73
2022/12/20 03:48:46;;;;;;;15.95;10.20;;;;;;;-3.60;100.00;94718.22;5048406;28;20040;-73
2022/12/20 03:51:13;;;;;;;18.98;12.18;;;;;;;-3.66;100.00;94716.88;5057055;28;20084;-73
2022/12/20 03:53:41;;;;;;;19.58;11.95;;;;;;;-3.66;100.00;94715.16;5068246;28;20048;-74
2022/12/20 03:56:08;;;;;;;19.25;12.48;;;;;;;-3.63;100.00;94717.53;5065157;28;20041;-74
2022/12/20 03:58:35;;;;;;;20.25;12.65;;;;;;;-3.65;100.00;94719.28;5066216;28;20071;-74
2022/12/20 04:01:02;;;;;;;21.52;13.07;;;;;;;-3.68;100.00;94714.44;5067196;28;20041;-73
2022/12/20 04:03:28;;;;;;;21.52;13.15;;;;;;;-3.71;100.00;94713.81;5067891;28;20048;-73
2022/12/20 04:05:55;;;;;;;21.73;13.18;;;;;;;-3.62;100.00;94710.78;5068079;28;20048;-73
2022/12/20 04:08:22;;;;;;;23.70;14.10;;;;;;;-3.58;100.00;94717.25;5067877;28;20040;-74
2022/12/20 04:13:34;;;;;;;21.38;13.55;;;;;;;-3.55;100.00;94716.28;5068254;28;20988;-73
2022/12/20 04:16:00;;;;;;;26.90;16.02;;;;;;;-3.45;100.00;94714.03;5072057;28;20044;-73
2022/12/20 04:18:27;;;;;;;27.42;16.08;;;;;;;-3.32;100.00;94707.44;5072013;28;20137;-73
2022/12/20 04:20:54;;;;;;;22.50;14.43;;;;;;;-3.32;100.00;94707.44;5071458;28;20071;-73
2022/12/20 04:23:21;;;;;;;22.70;14.95;;;;;;;-3.25;100.00;94710.41;5071472;28;20515;-73
2022/12/20 04:25:48;;;;;;;23.33;13.68;;;;;;;-3.31;100.00;94696.50;5071359;28;20562;-73
2022/12/20 04:28:16;;;;;;;23.13;14.55;;;;;;;-3.21;100.00;94709.34;5071313;28;20044;-73
2022/12/20 04:30:42;;;;;;;23.23;14.15;;;;;;;-3.18;100.00;94704.16;5071624;28;20048;-73
2022/12/20 04:33:09;;;;;;;23.98;15.27;;;;;;;-3.14;100.00;94699.75;5071671;28;20455;-74
2022/12/20 04:35:36;;;;;;;22.63;14.88;;;;;;;-3.16;100.00;94709.09;5071342;28;20045;-73
2022/12/20 04:38:03;;;;;;;32.03;18.10;;;;;;;-3.20;100.00;94698.38;5067569;28;20546;-74
2022/12/20 04:40:30;;;;;;;32.00;19.90;;;;;;;-3.16;100.00;94699.81;5069480;28;20094;-73
2022/12/20 04:42:57;;;;;;;29.67;17.65;;;;;;;-3.20;100.00;94692.56;5070534;28;20063;-73
2022/12/20 04:45:25;;;;;;;27.05;16.13;;;;;;;-3.24;100.00;94694.44;5071250;28;20044;-73
2022/12/20 04:47:51;;;;;;;27.98;17.10;;;;;;;-3.36;100.00;94691.75;5071384;28;20120;-74
2022/12/20 04:50:18;;;;;;;26.85;16.38;;;;;;;-3.46;100.00;94687.31;5071049;28;20044;-73
2022/12/20 04:55:29;;;;;;;23.77;15.45;;;;;;;-3.43;100.00;94698.00;5070684;28;20454;-73
2022/12/20 04:57:56;;;;;;;45.65;26.10;;;;;;;-3.49;100.00;94699.16;5070917;28;20044;-73
2022/12/20 05:00:23;;;;;;;39.35;23.52;;;;;;;-3.53;100.00;94695.19;5071076;28;20094;-73
2022/12/20 05:02:51;;;;;;;36.88;21.88;;;;;;;-3.55;100.00;94701.19;5071069;28;20048;-73
2022/12/20 05:05:17;;;;;;;34.83;21.42;;;;;;;-3.68;100.00;94678.47;5070680;28;20040;-73
2022/12/20 05:07:44;;;;;;;32.88;20.05;;;;;;;-3.62;100.00;94696.53;5070668;28;20494;-73
2022/12/20 05:10:11;;;;;;;48.95;27.13;;;;;;;-3.63;100.00;94686.56;5070657;28;20110;-73
2022/12/20 05:12:38;;;;;;;66.38;34.67;;;;;;;-3.63;100.00;94692.41;5048554;28;20089;-73
2022/12/20 05:15:06;;;;;;;57.10;31.67;;;;;;;-3.66;100.00;94697.59;5050256;28;20102;-73
2022/12/20 05:17:33;;;;;;;53.28;30.65;;;;;;;-3.74;100.00;94676.31;5050609;28;20128;-74
2022/12/20 05:20:01;;;;;;;57.00;31.75;;;;;;;-3.68;100.00;94696.06;5050564;28;20044;-73
2022/12/20 05:27:58;;;;;;;71.10;42.95;;;;;;;-3.72;100.00;94697.09;5050124;28;20493;-72
2022/12/20 05:30:25;;;;;;;54.33;32.40;;;;;;;-3.74;100.00;94699.72;5050023;28;20044;-72
2022/12/20 05:32:52;;;;;;;52.53;31.42;;;;;;;-3.74;100.00;94706.44;5049697;28;20041;-72
2022/12/20 05:35:20;;;;;;;35.83;23.25;;;;;;;-3.76;100.00;94706.50;5049869;28;20080;-72
2022/12/20 05:37:47;;;;;;;29.80;18.23;;;;;;;-3.83;100.00;94702.75;5049931;28;20033;-72
2022/12/20 05:40:14;;;;;;;28.02;19.23;;;;;;;-3.84;100.00;94716.19;5049749;28;20053;-73
2022/12/20 05:42:41;;;;;;;26.75;18.27;;;;;;;-3.83;100.00;94721.13;5049941;28;20114;-72
2022/12/20 05:45:08;;;;;;;27.00;18.30;;;;;;;-3.89;100.00;94712.22;5049860;28;20045;-73
2022/12/20 05:47:35;;;;;;;37.35;21.35;;;;;;;-3.90;100.00;94713.13;5049479;28;20641;-73
2022/12/20 05:50:03;;;;;;;28.63;19.65;;;;;;;-3.90;100.00;94710.59;5050044;28;20095;-72
2022/12/20 05:52:31;;;;;;;31.92;20.10;;;;;;;-3.90;100.00;94715.63;5069165;28;20123;-72
2022/12/20 05:54:58;;;;;;;36.78;22.40;;;;;;;-3.89;100.00;94711.44;5069682;28;20049;-72
2022/12/20 05:57:25;;;;;;;31.20;19.00;;;;;;;-3.95;100.00;94720.09;5069731;28;20086;-72
2022/12/20 05:59:52;;;;;;;33.45;18.88;;;;;;;-4.10;100.00;94704.16;5069582;28;20444;-73
2022/12/20 06:02:18;;;;;;;30.35;18.40;;;;;;;-4.04;100.00;94720.56;5069728;28;20102;-72
2022/12/20 06:04:45;;;;;;;31.55;18.33;;;;;;;-4.08;100.00;94729.19;5069758;28;20447;-72
2022/12/20 06:07:12;;;;;;;28.25;17.30;;;;;;;-4.11;100.00;94727.66;5069717;28;20048;-73
2022/12/20 06:09:40;;;;;;;26.52;17.27;;;;;;;-4.16;100.00;94717.84;5069664;28;20049;-72
2022/12/20 06:12:07;;;;;;;32.33;22.45;;;;;;;-4.15;100.00;94726.19;5069713;28;20040;-72
2022/12/20 06:14:33;;;;;;;33.35;21.73;;;;;;;-4.19;100.00;94714.69;5069014;28;20098;-72
2022/12/20 06:17:00;;;;;;;24.85;16.13;;;;;;;-4.23;100.00;94716.56;5069400;28;20044;-72
2022/12/20 06:19:27;;;;;;;26.60;17.52;;;;;;;-4.26;100.00;94710.91;5069546;28;20093;-73
2022/12/20 06:21:54;;;;;;;37.20;21.35;;;;;;;-4.29;100.00;94716.88;5069375;28;20475;-74
2022/12/20 06:24:24;;;;;;;34.13;20.27;;;;;;;-4.24;100.00;94714.13;5069109;28;20045;-73
2022/12/20 06:26:52;;;;;;;38.92;24.65;;;;;;;-4.22;100.00;94715.66;5069010;28;20053;-74
2022/12/20 06:29:19;;;;;;;42.42;26.27;;;;;;;-4.26;100.00;94711.69;5046245;28;20551;-73
2022/12/20 06:31:46;;;;;;;41.20;26.88;;;;;;;-4.23;100.00;94711.53;5049168;28;20564;-73
2022/12/20 06:34:13;;;;;;;44.38;26.90;;;;;;;-4.20;100.00;94710.56;5049160;28;20049;-73
2022/12/20 06:36:40;;;;;;;52.35;30.63;;;;;;;-4.12;100.00;94715.19;5048105;28;20041;-74
2022/12/20 06:39:08;;;;;;;55.40;30.80;;;;;;;-4.09;100.00;94712.47;5049332;28;20064;-74
2022/12/20 06:41:34;;;;;;;56.28;33.58;;;;;;;-4.17;100.00;94690.34;5049002;28;20091;-74
2022/12/20 06:44:03;;;;;;;57.45;33.88;;;;;;;-3.98;100.00;94702.66;5048991;28;20580;-74
2022/12/20 06:46:29;;;;;;;54.40;35.10;;;;;;;-3.94;100.00;94695.81;5048871;28;20048;-74
2022/12/20 06:48:56;;;;;;;57.63;36.63;;;;;;;-3.92;100.00;94692.31;5048652;28;20570;-74
2022/12/20 06:51:23;;;;;;;62.03;37.45;;;;;;;-3.93;100.00;94687.38;5059370;28;20044;-72
2022/12/20 06:53:50;;;;;;;64.35;37.35;;;;;;;-3.83;100.00;94693.50;5069117;28;20036;-73
2022/12/20 06:56:17;;;;;;;71.10;41.95;;;;;;;-3.76;100.00;94689.75;5068766;28;20048;-72
2022/12/20 06:58:46;;;;;;;68.30;38.92;;;;;;;-3.73;100.00;94682.94;5068711;28;20492;-72
2022/12/20 07:01:14;;;;;;;60.83;37.03;;;;;;;-3.65;100.00;94691.66;5068921;28;20056;-72
2022/12/20 07:03:40;;;;;;;63.17;38.50;;;;;;;-3.59;100.00;94689.69;5058271;28;20044;-72
2022/12/20 07:06:07;;;;;;;61.45;38.03;;;;;;;-3.50;100.00;94689.19;5066917;28;20044;-72
2022/12/20 07:08:34;;;;;;;85.85;45.78;;;;;;;-3.44;100.00;94683.00;5068372;28;20041;-72
2022/12/20 07:11:04;;;;;;;63.22;38.85;;;;;;;-3.37;100.00;94686.78;5069282;28;20048;-72
2022/12/20 07:13:31;;;;;;;65.85;39.03;;;;;;;-3.33;100.00;94678.19;5068678;28;20136;-72
2022/12/20 07:15:59;;;;;;;66.00;36.75;;;;;;;-3.22;100.00;94678.38;5068389;28;20044;-72
2022/12/20 07:18:27;;;;;;;63.47;38.05;;;;;;;-3.10;100.00;94683.59;5068402;28;20104;-72
2022/12/20 07:20:54;;;;;;;66.22;40.90;;;;;;;-3.01;100.00;94679.72;5068355;28;20509;-72
2022/12/20 07:23:21;;;;;;;55.88;34.63;;;;;;;-3.13;100.00;94651.09;5068609;28;20048;-72
2022/12/20 07:25:53;;;;;;;49.30;30.50;;;;;;;-2.82;100.00;94682.75;5068667;28;20087;-72
2022/12/20 07:28:20;;;;;;;47.47;28.92;;;;;;;-2.71;100.00;94688.88;5068396;28;20067;-72
2022/12/20 07:30:47;;;;;;;23.92;15.55;;;;;;;-2.66;100.00;94688.59;5068572;28;20040;-72
2022/12/20 07:33:14;;;;;;;28.73;18.30;;;;;;;-2.73;100.00;94691.47;5068218;28;20451;-72
2022/12/20 07:35:42;;;;;;;30.33;19.90;;;;;;;-2.77;100.00;94685.03;5068144;28;20696;-73
2022/12/20 07:38:09;;;;;;;29.45;19.08;;;;;;;-2.86;100.00;94685.56;5068207;28;20040;-72
2022/12/20 07:40:36;;;;;;;30.45;19.45;;;;;;;-2.75;100.00;94682.41;5067985;28;20615;-72
2022/12/20 07:43:03;;;;;;;33.47;20.65;;;;;;;-2.73;100.00;94665.53;5068492;28;20044;-72
2022/12/20 07:45:29;;;;;;;32.92;21.17;;;;;;;-2.44;100.00;94678.84;5068101;28;20044;-72
2022/12/20 07:47:56;;;;;;;24.88;17.15;;;;;;;-2.37;100.00;94683.53;5068819;28;20555;-72
2022/12/20 07:50:24;;;;;;;25.73;15.60;;;;;;;-2.42;100.00;94672.03;5072401;28;20050;-72
2022/12/20 07:52:52;;;;;;;25.35;16.23;;;;;;;-2.34;100.00;94676.59;5072506;28;20044;-72
2022/12/20 07:55:19;;;;;;;26.65;16.80;;;;;;;-2.18;100.00;94668.88;5072276;28;20094;-72
2022/12/20 07:57:49;;;;;;;25.20;16.40;;;;;;;-2.09;100.00;94671.75;5072137;28;20048;-72
2022/12/20 08:00:17;;;;;;;33.03;19.83;;;;;;;-2.21;100.00;94656.50;5072160;28;20453;-72
2022/12/20 08:02:49;;;;;;;25.70;16.70;;;;;;;-2.05;100.00;94663.91;5072215;28;20131;-72
2022/12/20 08:05:16;;;;;;;29.65;20.20;;;;;;;-1.84;100.00;94670.19;5071769;28;20373;-72
2022/12/20 08:07:46;;;;;;;29.95;22.20;;;;;;;-1.77;100.00;94667.19;5071830;28;20511;-72
2022/12/20 08:10:16;;;;;;;30.63;19.67;;;;;;;-1.78;100.00;94670.63;5071766;28;20589;-72
2022/12/20 08:12:45;;;;;;;22.88;15.68;;;;;;;-1.78;100.00;94667.28;5071648;28;20094;-72
2022/12/20 08:15:12;;;;;;;23.83;15.18;;;;;;;-1.71;100.00;94667.72;5071886;28;20051;-72
2022/12/20 08:17:38;;;;;;;24.60;15.75;;;;;;;-1.65;100.00;94650.50;5071779;28;20106;-72
2022/12/20 08:20:07;;;;;;;23.08;16.00;;;;;;;-1.54;100.00;94672.47;5071561;28;20350;-72
2022/12/20 08:22:34;;;;;;;27.67;16.30;;;;;;;-1.52;100.00;94667.34;5071537;28;20765;-72
2022/12/20 08:25:01;;;;;;;29.98;18.90;;;;;;;-1.43;100.00;94670.97;5071572;28;20090;-73
2022/12/20 08:27:29;;;;;;;27.30;17.90;;;;;;;-1.30;100.00;94648.28;5071611;28;20049;-72
2022/12/20 08:29:56;;;;;;;29.63;18.45;;;;;;;-1.16;100.00;94655.75;5071389;28;20094;-72
2022/12/20 08:32:23;;;;;;;40.55;28.13;;;;;;;-1.01;100.00;94658.16;5071633;28;20110;-72
2022/12/20 08:34:50;;;;;;;28.25;18.42;;;;;;;-0.96;100.00;94644.31;5071366;28;20045;-72
2022/12/20 08:37:17;;;;;;;34.65;21.33;;;;;;;-0.81;100.00;94655.13;5071322;28;20040;-72
2022/12/20 08:39:44;;;;;;;28.50;19.35;;;;;;;-0.70;100.00;94648.50;5071240;28;20040;-72
2022/12/20 08:42:10;;;;;;;56.83;43.20;;;;;;;-0.61;100.00;94647.88;5071422;28;20048;-73
2022/12/20 08:44:38;;;;;;;39.33;28.40;;;;;;;-0.58;100.00;94632.56;5071151;28;20090;-73
2022/12/20 08:47:05;;;;;;;30.63;21.52;;;;;;;-0.43;100.00;94650.06;5070892;28;20044;-73
2022/12/20 08:49:32;;;;;;;28.30;18.60;;;;;;;-0.36;100.00;94655.50;5071552;28;20114;-73
2022/12/20 08:51:59;;;;;;;31.05;20.25;;;;;;;-0.40;100.00;94657.44;5070827;28;20040;-72
2022/12/20 08:54:25;;;;;;;34.33;22.50;;;;;;;-0.34;100.00;94641.03;5071444;28;20040;-72
2022/12/20 08:56:53;;;;;;;63.55;37.70;;;;;;;-0.14;100.00;94650.56;5071177;28;20472;-73
2022/12/20 08:59:20;;;;;;;79.85;44.63;;;;;;;-0.30;100.00;94623.06;5070195;28;20095;-72
2022/12/20 09:01:49;;;;;;;32.95;20.73;;;;;;;-0.16;100.00;94656.63;5070864;28;20094;-72
2022/12/20 09:04:16;;;;;;;32.10;20.35;;;;;;;-0.42;100.00;94662.59;5071083;28;20044;-72
2022/12/20 09:06:42;;;;;;;28.60;19.02;;;;;;;-0.21;100.00;94653.63;5070821;28;20036;-72
2022/12/20 09:09:09;;;;;;;28.00;17.92;;;;;;;-0.24;100.00;94657.16;5071142;28;20086;-72
2022/12/20 09:11:36;;;;;;;35.97;22.60;;;;;;;-0.59;100.00;94657.88;5070723;28;20105;-72
2022/12/20 09:14:03;;;;;;;29.15;17.63;;;;;;;-0.60;100.00;94646.19;5070904;28;20045;-72
2022/12/20 09:16:32;;;;;;;31.08;18.23;;;;;;;-0.62;100.00;94640.41;5070944;28;20081;-73
2022/12/20 09:19:01;;;;;;;61.22;31.52;;;;;;;-0.41;100.00;94640.69;5070383;28;20045;-72
2022/12/20 09:21:28;;;;;;;41.45;23.15;;;;;;;-0.19;100.00;94632.38;5070612;28;20036;-72
2022/12/20 09:23:56;;;;;;;29.75;18.38;;;;;;;-0.15;100.00;94632.97;5070745;28;20097;-74
2022/12/20 09:26:24;;;;;;;311.20;148.85;;;;;;;-0.11;100.00;94619.22;5070638;28;20408;-73
2022/12/20 09:28:51;;;;;;;73.05;40.90;;;;;;;0.03;100.00;94605.59;5070419;28;20110;-72
2022/12/20 09:31:20;;;;;;;39.97;24.63;;;;;;;0.19;100.00;94619.69;5070403;28;20105;-71
2022/12/20 09:33:47;;;;;;;32.13;20.83;;;;;;;0.09;100.00;94619.53;5070754;28;20102;-71
2022/12/20 09:36:18;;;;;;;31.27;19.95;;;;;;;0.20;100.00;94611.16;5070532;28;20493;-71
2022/12/20 09:38:46;;;;;;;29.70;19.73;;;;;;;0.25;100.00;94611.66;5070695;28;20497;-71
2022/12/20 09:41:25;;;;;;;33.72;22.52;;;;;;;0.28;100.00;94619.03;5070668;28;20058;-71
2022/12/20 09:43:52;;;;;;;30.35;17.92;;;;;;;0.35;100.00;94614.31;5070913;28;20055;-71
2022/12/20 09:46:19;;;;;;;30.70;19.20;;;;;;;0.00;100.00;94618.47;5070134;28;20106;-71
2022/12/20 09:48:47;;;;;;;27.23;17.98;;;;;;;-0.07;100.00;94595.38;5070272;28;20088;-71
2022/12/20 09:51:40;;;;;;;26.73;18.08;;;;;;;0.18;100.00;94595.31;5070376;28;20101;-71
2022/12/20 09:54:18;;;;;;;29.88;17.85;;;;;;;0.36;100.00;94588.91;5070579;28;20455;-71
2022/12/20 09:56:54;;;;;;;28.77;17.90;;;;;;;0.41;100.00;94583.50;5069949;28;20045;-71
2022/12/20 09:59:21;;;;;;;;;;;;;;;0.46;98.22;94585.72;5071058;28;20097;-71
2022/12/20 10:01:50;;;;;;;28.02;17.15;;;;;;;0.25;96.48;94569.50;5069970;28;19924;-71
2022/12/20 10:04:22;;;;;;;42.55;24.15;;;;;;;0.45;100.00;94569.75;5070315;28;20538;-71
2022/12/20 10:07:06;;;;;;;43.17;24.00;;;;;;;0.41;100.00;94565.81;5070232;28;20136;-71
2022/12/20 10:10:02;;;;;;;46.58;24.85;;;;;;;0.11;97.49;94570.50;5070408;28;20048;-71
2022/12/20 10:12:41;;;;;;;51.35;27.98;;;;;;;0.19;99.48;94561.56;5070020;28;20489;-71
2022/12/20 10:15:19;;;;;;;45.78;26.00;;;;;;;0.10;99.26;94550.41;5069815;28;20499;-70
2022/12/20 10:17:59;;;;;;;44.72;26.83;;;;;;;0.05;99.25;94530.50;5069862;28;20094;-70
2022/12/20 10:20:36;;;;;;;38.72;23.20;;;;;;;0.20;100.00;94526.06;5070033;28;20130;-70
2022/12/20 10:23:13;;;;;;;45.60;24.52;;;;;;;0.03;100.00;94514.66;5069587;28;20044;-70
2022/12/20 10:25:41;;;;;;;42.05;23.45;;;;;;;0.04;100.00;94501.09;5069569;28;20048;-70
2022/12/20 10:28:14;;;;;;;42.72;24.13;;;;;;;0.24;100.00;94519.84;5069536;28;20052;-70
2022/12/20 10:30:41;;;;;;;38.67;22.13;;;;;;;-0.04;96.69;94490.78;5069519;28;20045;-70
2022/12/20 10:33:16;;;;;;;38.58;23.83;;;;;;;0.25;98.53;94508.84;5069422;28;20101;-70
2022/12/20 10:35:43;;;;;;;48.60;24.60;;;;;;;0.32;97.18;94503.34;5069697;28;20075;-70
2022/12/20 10:38:14;;;;;;;44.80;24.50;;;;;;;0.44;94.10;94504.13;5069356;28;20057;-70
2022/12/20 10:40:43;;;;;;;39.35;22.35;;;;;;;0.54;96.59;94494.94;5068829;28;20136;-70
2022/12/20 10:43:16;;;;;;;41.95;23.13;;;;;;;0.62;92.79;94501.94;5069357;28;20067;-70
2022/12/20 10:45:43;;;;;;;41.70;22.92;;;;;;;0.80;98.33;94489.63;5064848;28;20474;-71
2022/12/20 10:48:27;;;;;;;37.15;22.63;;;;;;;1.00;98.40;94485.56;5067429;28;20101;-70
2022/12/20 10:50:57;;;;;;;49.67;27.98;;;;;;;1.26;100.00;94480.19;5069200;28;20052;-71
2022/12/20 10:53:27;;;;;;;50.50;27.58;;;;;;;1.28;98.15;94458.09;5068848;28;20105;-71
2022/12/20 10:55:55;;;;;;;45.08;26.50;;;;;;;1.47;98.23;94459.16;5069264;28;20048;-71
2022/12/20 10:58:34;;;;;;;50.38;27.90;;;;;;;1.60;93.67;94469.91;5069050;28;20102;-70
2022/12/20 11:01:07;;;;;;;36.35;20.67;;;;;;;1.46;87.70;94475.28;5069275;28;20094;-70
2022/12/20 11:03:34;;;;;;;32.00;20.48;;;;;;;1.64;90.37;94467.13;5068896;28;20052;-70
2022/12/20 11:06:03;;;;;;;35.17;18.65;;;;;;;1.36;85.13;94464.25;5068780;28;20040;-71
2022/12/20 11:08:33;;;;;;;33.00;18.10;;;;;;;0.95;82.57;94459.00;5068312;28;20049;-70
2022/12/20 11:11:16;;;;;;;26.90;15.07;;;;;;;0.65;76.81;94421.59;5068952;28;20051;-72
2022/12/20 11:13:43;;;;;;;21.17;12.40;;;;;;;0.78;75.51;94456.03;5068819;28;20048;-71
2022/12/20 11:16:28;;;;;;;28.70;16.83;;;;;;;0.84;77.41;94454.78;5068839;28;20048;-71
2022/12/20 11:19:16;;;;;;;25.73;17.10;;;;;;;0.77;76.73;94444.31;5068060;28;20097;-71
2022/12/20 11:21:50;;;;;;;22.88;14.73;;;;;;;0.79;76.24;94442.50;5052748;28;20095;-71
2022/12/20 11:24:28;;;;;;;22.50;12.95;;;;;;;0.86;78.67;94433.50;5061127;28;20056;-72
2022/12/20 11:27:08;;;;;;;20.23;11.68;;;;;;;1.06;78.00;94434.47;5068481;28;20041;-72
2022/12/20 11:29:56;;;;;;;34.92;17.52;;;;;;;1.00;83.98;94393.66;5068923;28;20098;-72
2022/12/20 11:32:36;;;;;;;23.50;12.95;;;;;;;1.35;80.87;94422.16;5069113;28;20069;-72
2022/12/20 11:35:11;;;;;;;24.02;13.10;;;;;;;1.32;79.44;94413.06;5068476;28;20497;-72